sensor_id;sensor_type;location;lat;lon;timestamp;P1;durP1;ratioP1;P2;durP2;ratioP2
76900;SDS011;65859;43.020;25.096;2024-02-28T00:02:20;23.55;;;13.18;;
76900;SDS011;65859;43.020;25.096;2024-02-28T00:04:46;21.42;;;12.82;;
76900;SDS011;65859;43.020;25.096;2024-02-28T00:07:13;22.92;;;13.70;;
76900;SDS011;65859;43.020;25.096;2024-02-28T00:09:39;21.80;;;12.73;;
76900;SDS011;65859;43.020;25.096;2024-02-28T00:12:06;19.45;;;11.57;;
76900;SDS011;65859;43.020;25.096;2024-02-28T00:14:32;18.73;;;11.20;;
76900;SDS011;65859;43.020;25.096;2024-02-28T00:16:59;24.60;;;12.32;;
76900;SDS011;65859;43.020;25.096;2024-02-28T00:19:25;27.13;;;13.15;;
76900;SDS011;65859;43.020;25.096;2024-02-28T00:21:51;21.05;;;11.70;;
76900;SDS011;65859;43.020;25.096;2024-02-28T00:24:19;24.90;;;12.45;;
76900;SDS011;65859;43.020;25.096;2024-02-28T00:26:45;21.23;;;11.90;;
76900;SDS011;65859;43.020;25.096;2024-02-28T00:29:11;23.08;;;13.25;;
76900;SDS011;65859;43.020;25.096;2024-02-28T00:31:38;19.75;;;12.10;;
76900;SDS011;65859;43.020;25.096;2024-02-28T00:34:04;20.05;;;11.52;;
76900;SDS011;65859;43.020;25.096;2024-02-28T00:36:31;20.50;;;11.00;;
76900;SDS011;65859;43.020;25.096;2024-02-28T00:38:58;19.52;;;11.65;;
76900;SDS011;65859;43.020;25.096;2024-02-28T00:41:24;18.95;;;11.43;;
76900;SDS011;65859;43.020;25.096;2024-02-28T00:43:50;22.02;;;13.20;;
76900;SDS011;65859;43.020;25.096;2024-02-28T00:46:16;21.80;;;11.60;;
76900;SDS011;65859;43.020;25.096;2024-02-28T00:48:43;21.70;;;11.70;;
76900;SDS011;65859;43.020;25.096;2024-02-28T00:51:09;21.77;;;11.05;;
76900;SDS011;65859;43.020;25.096;2024-02-28T00:53:35;17.55;;;10.88;;
76900;SDS011;65859;43.020;25.096;2024-02-28T00:56:03;15.32;;;9.52;;
76900;SDS011;65859;43.020;25.096;2024-02-28T00:58:30;17.88;;;10.23;;
76900;SDS011;65859;43.020;25.096;2024-02-28T01:00:56;17.77;;;10.43;;
76900;SDS011;65859;43.020;25.096;2024-02-28T01:03:22;16.55;;;9.88;;
76900;SDS011;65859;43.020;25.096;2024-02-28T01:05:49;16.35;;;9.48;;
76900;SDS011;65859;43.020;25.096;2024-02-28T01:08:16;16.10;;;9.57;;
76900;SDS011;65859;43.020;25.096;2024-02-28T01:10:43;16.75;;;9.38;;
76900;SDS011;65859;43.020;25.096;2024-02-28T01:13:09;16.73;;;9.35;;
76900;SDS011;65859;43.020;25.096;2024-02-28T01:15:35;17.63;;;8.82;;
76900;SDS011;65859;43.020;25.096;2024-02-28T01:18:04;14.25;;;9.18;;
76900;SDS011;65859;43.020;25.096;2024-02-28T01:20:30;19.00;;;10.32;;
76900;SDS011;65859;43.020;25.096;2024-02-28T01:22:56;15.10;;;10.20;;
76900;SDS011;65859;43.020;25.096;2024-02-28T01:25:22;15.57;;;9.35;;
76900;SDS011;65859;43.020;25.096;2024-02-28T01:27:50;17.70;;;10.70;;
76900;SDS011;65859;43.020;25.096;2024-02-28T01:30:16;17.90;;;10.60;;
76900;SDS011;65859;43.020;25.096;2024-02-28T01:32:44;12.77;;;9.00;;
76900;SDS011;65859;43.020;25.096;2024-02-28T01:35:11;16.30;;;9.98;;
76900;SDS011;65859;43.020;25.096;2024-02-28T01:37:37;19.58;;;11.38;;
76900;SDS011;65859;43.020;25.096;2024-02-28T01:40:04;18.10;;;10.32;;
76900;SDS011;65859;43.020;25.096;2024-02-28T01:42:30;18.63;;;9.88;;
76900;SDS011;65859;43.020;25.096;2024-02-28T01:44:57;17.95;;;9.48;;
76900;SDS011;65859;43.020;25.096;2024-02-28T01:47:23;18.48;;;9.95;;
76900;SDS011;65859;43.020;25.096;2024-02-28T01:49:50;23.20;;;10.52;;
76900;SDS011;65859;43.020;25.096;2024-02-28T01:52:18;17.02;;;9.85;;
76900;SDS011;65859;43.020;25.096;2024-02-28T01:54:45;19.05;;;10.70;;
76900;SDS011;65859;43.020;25.096;2024-02-28T01:57:11;16.30;;;10.05;;
76900;SDS011;65859;43.020;25.096;2024-02-28T01:59:39;17.52;;;10.88;;
76900;SDS011;65859;43.020;25.096;2024-02-28T02:02:07;19.52;;;11.07;;
76900;SDS011;65859;43.020;25.096;2024-02-28T02:04:34;21.25;;;11.32;;
76900;SDS011;65859;43.020;25.096;2024-02-28T02:07:00;19.45;;;10.20;;
76900;SDS011;65859;43.020;25.096;2024-02-28T02:09:26;17.50;;;10.38;;
76900;SDS011;65859;43.020;25.096;2024-02-28T02:11:52;15.80;;;9.63;;
76900;SDS011;65859;43.020;25.096;2024-02-28T02:14:19;20.20;;;10.70;;
76900;SDS011;65859;43.020;25.096;2024-02-28T02:16:45;21.77;;;10.57;;
76900;SDS011;65859;43.020;25.096;2024-02-28T02:19:11;19.08;;;10.80;;
76900;SDS011;65859;43.020;25.096;2024-02-28T02:21:41;18.15;;;10.75;;
76900;SDS011;65859;43.020;25.096;2024-02-28T02:24:14;16.75;;;10.68;;
76900;SDS011;65859;43.020;25.096;2024-02-28T02:26:40;19.52;;;9.75;;
76900;SDS011;65859;43.020;25.096;2024-02-28T02:29:09;17.20;;;10.25;;
76900;SDS011;65859;43.020;25.096;2024-02-28T02:31:37;17.60;;;9.70;;
76900;SDS011;65859;43.020;25.096;2024-02-28T02:34:03;17.67;;;9.93;;
76900;SDS011;65859;43.020;25.096;2024-02-28T02:36:29;21.10;;;10.30;;
76900;SDS011;65859;43.020;25.096;2024-02-28T02:38:55;16.75;;;10.15;;
76900;SDS011;65859;43.020;25.096;2024-02-28T02:41:22;22.13;;;10.80;;
76900;SDS011;65859;43.020;25.096;2024-02-28T02:43:49;25.15;;;10.73;;
76900;SDS011;65859;43.020;25.096;2024-02-28T02:46:15;22.75;;;10.63;;
76900;SDS011;65859;43.020;25.096;2024-02-28T02:48:41;16.50;;;9.25;;
76900;SDS011;65859;43.020;25.096;2024-02-28T02:51:07;17.05;;;10.95;;
76900;SDS011;65859;43.020;25.096;2024-02-28T02:53:33;16.65;;;9.98;;
76900;SDS011;65859;43.020;25.096;2024-02-28T02:55:59;15.77;;;8.98;;
76900;SDS011;65859;43.020;25.096;2024-02-28T02:58:28;18.25;;;9.65;;
76900;SDS011;65859;43.020;25.096;2024-02-28T03:00:55;18.60;;;10.63;;
76900;SDS011;65859;43.020;25.096;2024-02-28T03:03:22;21.60;;;10.32;;
76900;SDS011;65859;43.020;25.096;2024-02-28T03:05:48;17.30;;;10.73;;
76900;SDS011;65859;43.020;25.096;2024-02-28T03:08:15;17.25;;;9.75;;
76900;SDS011;65859;43.020;25.096;2024-02-28T03:10:41;15.15;;;9.57;;
76900;SDS011;65859;43.020;25.096;2024-02-28T03:13:07;27.40;;;14.80;;
76900;SDS011;65859;43.020;25.096;2024-02-28T03:15:33;21.25;;;11.70;;
76900;SDS011;65859;43.020;25.096;2024-02-28T03:18:00;18.60;;;11.00;;
76900;SDS011;65859;43.020;25.096;2024-02-28T03:20:27;19.23;;;11.35;;
76900;SDS011;65859;43.020;25.096;2024-02-28T03:22:53;23.67;;;13.70;;
76900;SDS011;65859;43.020;25.096;2024-02-28T03:25:19;25.73;;;14.07;;
76900;SDS011;65859;43.020;25.096;2024-02-28T03:27:45;26.08;;;12.75;;
76900;SDS011;65859;43.020;25.096;2024-02-28T03:30:12;29.60;;;13.23;;
76900;SDS011;65859;43.020;25.096;2024-02-28T03:32:39;21.50;;;11.70;;
76900;SDS011;65859;43.020;25.096;2024-02-28T03:35:06;20.60;;;11.48;;
76900;SDS011;65859;43.020;25.096;2024-02-28T03:37:34;25.00;;;13.50;;
76900;SDS011;65859;43.020;25.096;2024-02-28T03:40:00;21.52;;;11.57;;
76900;SDS011;65859;43.020;25.096;2024-02-28T03:42:26;24.88;;;11.38;;
76900;SDS011;65859;43.020;25.096;2024-02-28T03:44:52;22.33;;;11.48;;
76900;SDS011;65859;43.020;25.096;2024-02-28T03:47:18;23.33;;;12.52;;
76900;SDS011;65859;43.020;25.096;2024-02-28T03:49:45;24.75;;;11.60;;
76900;SDS011;65859;43.020;25.096;2024-02-28T03:52:11;20.60;;;10.57;;
76900;SDS011;65859;43.020;25.096;2024-02-28T03:54:37;18.10;;;10.18;;
76900;SDS011;65859;43.020;25.096;2024-02-28T03:57:06;18.80;;;9.98;;
76900;SDS011;65859;43.020;25.096;2024-02-28T03:59:33;25.52;;;12.98;;
76900;SDS011;65859;43.020;25.096;2024-02-28T04:01:59;20.67;;;10.95;;
76900;SDS011;65859;43.020;25.096;2024-02-28T04:04:25;16.92;;;10.25;;
76900;SDS011;65859;43.020;25.096;2024-02-28T04:06:52;15.23;;;9.13;;
76900;SDS011;65859;43.020;25.096;2024-02-28T04:09:19;20.08;;;10.35;;
76900;SDS011;65859;43.020;25.096;2024-02-28T04:11:45;15.70;;;10.00;;
76900;SDS011;65859;43.020;25.096;2024-02-28T04:14:11;18.92;;;9.77;;
76900;SDS011;65859;43.020;25.096;2024-02-28T04:16:41;16.83;;;9.30;;
76900;SDS011;65859;43.020;25.096;2024-02-28T04:19:11;115.80;;;15.80;;
76900;SDS011;65859;43.020;25.096;2024-02-28T04:21:38;56.53;;;11.57;;
76900;SDS011;65859;43.020;25.096;2024-02-28T04:24:07;22.23;;;10.35;;
76900;SDS011;65859;43.020;25.096;2024-02-28T04:26:34;18.33;;;10.27;;
76900;SDS011;65859;43.020;25.096;2024-02-28T04:29:01;22.00;;;10.05;;
76900;SDS011;65859;43.020;25.096;2024-02-28T04:31:30;20.25;;;11.02;;
76900;SDS011;65859;43.020;25.096;2024-02-28T04:33:57;23.27;;;13.00;;
76900;SDS011;65859;43.020;25.096;2024-02-28T04:36:23;22.27;;;12.70;;
76900;SDS011;65859;43.020;25.096;2024-02-28T04:38:50;23.55;;;12.95;;
76900;SDS011;65859;43.020;25.096;2024-02-28T04:41:16;27.23;;;16.08;;
76900;SDS011;65859;43.020;25.096;2024-02-28T04:43:43;28.13;;;16.80;;
76900;SDS011;65859;43.020;25.096;2024-02-28T04:46:09;39.00;;;22.70;;
76900;SDS011;65859;43.020;25.096;2024-02-28T04:48:35;33.15;;;18.63;;
76900;SDS011;65859;43.020;25.096;2024-02-28T04:51:01;35.70;;;22.40;;
76900;SDS011;65859;43.020;25.096;2024-02-28T04:53:28;40.95;;;22.50;;
76900;SDS011;65859;43.020;25.096;2024-02-28T04:55:54;47.97;;;29.55;;
76900;SDS011;65859;43.020;25.096;2024-02-28T04:58:20;48.15;;;27.42;;
76900;SDS011;65859;43.020;25.096;2024-02-28T05:00:46;40.80;;;20.90;;
76900;SDS011;65859;43.020;25.096;2024-02-28T05:03:12;26.85;;;13.93;;
76900;SDS011;65859;43.020;25.096;2024-02-28T05:05:39;21.05;;;13.52;;
76900;SDS011;65859;43.020;25.096;2024-02-28T05:08:05;24.67;;;13.90;;
76900;SDS011;65859;43.020;25.096;2024-02-28T05:10:32;22.17;;;14.02;;
76900;SDS011;65859;43.020;25.096;2024-02-28T05:12:59;22.95;;;13.20;;
76900;SDS011;65859;43.020;25.096;2024-02-28T05:15:25;31.73;;;15.80;;
76900;SDS011;65859;43.020;25.096;2024-02-28T05:17:51;24.95;;;14.30;;
76900;SDS011;65859;43.020;25.096;2024-02-28T05:20:18;26.60;;;13.95;;
76900;SDS011;65859;43.020;25.096;2024-02-28T05:22:45;31.40;;;18.35;;
76900;SDS011;65859;43.020;25.096;2024-02-28T05:25:11;35.28;;;20.88;;
76900;SDS011;65859;43.020;25.096;2024-02-28T05:27:38;44.67;;;28.73;;
76900;SDS011;65859;43.020;25.096;2024-02-28T05:30:04;49.50;;;22.30;;
76900;SDS011;65859;43.020;25.096;2024-02-28T05:32:32;34.63;;;17.85;;
76900;SDS011;65859;43.020;25.096;2024-02-28T05:34:58;27.27;;;15.13;;
76900;SDS011;65859;43.020;25.096;2024-02-28T05:37:25;21.60;;;13.82;;
76900;SDS011;65859;43.020;25.096;2024-02-28T05:39:51;26.33;;;14.02;;
76900;SDS011;65859;43.020;25.096;2024-02-28T05:42:18;31.73;;;17.02;;
76900;SDS011;65859;43.020;25.096;2024-02-28T05:44:49;31.50;;;16.75;;
76900;SDS011;65859;43.020;25.096;2024-02-28T05:47:15;27.95;;;18.70;;
76900;SDS011;65859;43.020;25.096;2024-02-28T05:49:42;24.95;;;14.68;;
76900;SDS011;65859;43.020;25.096;2024-02-28T05:52:09;25.25;;;13.43;;
76900;SDS011;65859;43.020;25.096;2024-02-28T05:54:36;26.77;;;15.10;;
76900;SDS011;65859;43.020;25.096;2024-02-28T05:57:02;25.10;;;14.07;;
76900;SDS011;65859;43.020;25.096;2024-02-28T05:59:28;40.22;;;21.60;;
76900;SDS011;65859;43.020;25.096;2024-02-28T06:01:55;36.90;;;18.38;;
76900;SDS011;65859;43.020;25.096;2024-02-28T06:04:21;28.08;;;17.58;;
76900;SDS011;65859;43.020;25.096;2024-02-28T06:06:47;29.77;;;16.50;;
76900;SDS011;65859;43.020;25.096;2024-02-28T06:09:15;32.88;;;19.13;;
76900;SDS011;65859;43.020;25.096;2024-02-28T06:11:41;25.98;;;16.00;;
76900;SDS011;65859;43.020;25.096;2024-02-28T06:14:09;24.80;;;14.80;;
76900;SDS011;65859;43.020;25.096;2024-02-28T06:16:35;31.83;;;17.40;;
76900;SDS011;65859;43.020;25.096;2024-02-28T06:19:01;29.83;;;17.15;;
76900;SDS011;65859;43.020;25.096;2024-02-28T06:21:27;28.73;;;16.02;;
76900;SDS011;65859;43.020;25.096;2024-02-28T06:23:54;28.48;;;17.10;;
76900;SDS011;65859;43.020;25.096;2024-02-28T06:26:20;21.58;;;13.85;;
76900;SDS011;65859;43.020;25.096;2024-02-28T06:28:47;20.83;;;12.90;;
76900;SDS011;65859;43.020;25.096;2024-02-28T06:31:16;20.85;;;12.65;;
76900;SDS011;65859;43.020;25.096;2024-02-28T06:33:43;23.33;;;14.10;;
76900;SDS011;65859;43.020;25.096;2024-02-28T06:36:09;22.42;;;14.23;;
76900;SDS011;65859;43.020;25.096;2024-02-28T06:38:36;17.15;;;10.50;;
76900;SDS011;65859;43.020;25.096;2024-02-28T06:41:05;15.50;;;10.52;;
76900;SDS011;65859;43.020;25.096;2024-02-28T06:43:34;16.90;;;10.55;;
76900;SDS011;65859;43.020;25.096;2024-02-28T06:46:02;17.83;;;11.02;;
76900;SDS011;65859;43.020;25.096;2024-02-28T06:48:28;18.90;;;13.20;;
76900;SDS011;65859;43.020;25.096;2024-02-28T06:50:55;19.25;;;12.60;;
76900;SDS011;65859;43.020;25.096;2024-02-28T06:53:23;25.60;;;15.13;;
76900;SDS011;65859;43.020;25.096;2024-02-28T06:55:49;29.35;;;16.30;;
76900;SDS011;65859;43.020;25.096;2024-02-28T06:58:15;22.23;;;13.65;;
76900;SDS011;65859;43.020;25.096;2024-02-28T07:00:41;27.85;;;16.20;;
76900;SDS011;65859;43.020;25.096;2024-02-28T07:03:08;28.05;;;16.73;;
76900;SDS011;65859;43.020;25.096;2024-02-28T07:05:34;27.80;;;14.85;;
76900;SDS011;65859;43.020;25.096;2024-02-28T07:08:00;26.00;;;15.18;;
76900;SDS011;65859;43.020;25.096;2024-02-28T07:10:27;29.58;;;17.27;;
76900;SDS011;65859;43.020;25.096;2024-02-28T07:12:53;38.28;;;18.40;;
76900;SDS011;65859;43.020;25.096;2024-02-28T07:15:19;36.20;;;20.95;;
76900;SDS011;65859;43.020;25.096;2024-02-28T07:17:47;33.90;;;23.38;;
76900;SDS011;65859;43.020;25.096;2024-02-28T07:20:14;39.78;;;26.10;;
76900;SDS011;65859;43.020;25.096;2024-02-28T07:22:41;37.70;;;23.45;;
76900;SDS011;65859;43.020;25.096;2024-02-28T07:25:08;40.47;;;25.23;;
76900;SDS011;65859;43.020;25.096;2024-02-28T07:27:34;41.35;;;22.77;;
76900;SDS011;65859;43.020;25.096;2024-02-28T07:30:01;37.28;;;23.70;;
76900;SDS011;65859;43.020;25.096;2024-02-28T07:32:31;37.35;;;22.25;;
76900;SDS011;65859;43.020;25.096;2024-02-28T07:35:00;36.90;;;21.40;;
76900;SDS011;65859;43.020;25.096;2024-02-28T07:37:26;32.42;;;21.35;;
76900;SDS011;65859;43.020;25.096;2024-02-28T07:39:53;38.17;;;21.98;;
76900;SDS011;65859;43.020;25.096;2024-02-28T07:42:19;33.05;;;19.50;;
76900;SDS011;65859;43.020;25.096;2024-02-28T07:44:45;29.63;;;18.35;;
76900;SDS011;65859;43.020;25.096;2024-02-28T07:47:11;29.05;;;18.55;;
76900;SDS011;65859;43.020;25.096;2024-02-28T07:49:40;33.78;;;18.92;;
76900;SDS011;65859;43.020;25.096;2024-02-28T07:52:08;28.65;;;19.23;;
76900;SDS011;65859;43.020;25.096;2024-02-28T07:54:34;32.42;;;20.55;;
76900;SDS011;65859;43.020;25.096;2024-02-28T07:57:02;35.35;;;22.35;;
76900;SDS011;65859;43.020;25.096;2024-02-28T07:59:28;33.80;;;21.20;;
76900;SDS011;65859;43.020;25.096;2024-02-28T08:01:54;31.00;;;18.60;;
76900;SDS011;65859;43.020;25.096;2024-02-28T08:04:21;32.78;;;19.70;;
76900;SDS011;65859;43.020;25.096;2024-02-28T08:06:47;31.10;;;19.85;;
76900;SDS011;65859;43.020;25.096;2024-02-28T08:09:13;59.08;;;19.92;;
76900;SDS011;65859;43.020;25.096;2024-02-28T08:11:40;21.88;;;15.35;;
76900;SDS011;65859;43.020;25.096;2024-02-28T08:14:07;25.70;;;16.70;;
76900;SDS011;65859;43.020;25.096;2024-02-28T08:16:34;23.67;;;16.95;;
76900;SDS011;65859;43.020;25.096;2024-02-28T08:19:00;26.38;;;17.17;;
76900;SDS011;65859;43.020;25.096;2024-02-28T08:21:26;32.28;;;18.55;;
76900;SDS011;65859;43.020;25.096;2024-02-28T08:23:54;26.17;;;18.38;;
76900;SDS011;65859;43.020;25.096;2024-02-28T08:26:20;24.90;;;17.98;;
76900;SDS011;65859;43.020;25.096;2024-02-28T08:28:46;26.02;;;18.50;;
76900;SDS011;65859;43.020;25.096;2024-02-28T08:31:12;28.35;;;17.65;;
76900;SDS011;65859;43.020;25.096;2024-02-28T08:33:39;27.60;;;16.40;;
76900;SDS011;65859;43.020;25.096;2024-02-28T08:36:06;28.92;;;17.95;;
76900;SDS011;65859;43.020;25.096;2024-02-28T08:38:33;28.00;;;18.80;;
76900;SDS011;65859;43.020;25.096;2024-02-28T08:40:59;26.77;;;19.38;;
76900;SDS011;65859;43.020;25.096;2024-02-28T08:43:26;27.25;;;18.88;;
76900;SDS011;65859;43.020;25.096;2024-02-28T08:45:52;31.60;;;19.38;;
76900;SDS011;65859;43.020;25.096;2024-02-28T08:48:20;27.77;;;19.50;;
76900;SDS011;65859;43.020;25.096;2024-02-28T08:50:46;29.50;;;18.33;;
76900;SDS011;65859;43.020;25.096;2024-02-28T08:53:14;33.03;;;19.55;;
76900;SDS011;65859;43.020;25.096;2024-02-28T08:55:40;26.13;;;17.23;;
76900;SDS011;65859;43.020;25.096;2024-02-28T08:58:06;24.02;;;15.43;;
76900;SDS011;65859;43.020;25.096;2024-02-28T09:00:33;27.67;;;17.50;;
76900;SDS011;65859;43.020;25.096;2024-02-28T09:03:03;23.95;;;16.45;;
76900;SDS011;65859;43.020;25.096;2024-02-28T09:05:30;20.27;;;13.63;;
76900;SDS011;65859;43.020;25.096;2024-02-28T09:07:56;22.48;;;14.60;;
76900;SDS011;65859;43.020;25.096;2024-02-28T09:10:23;20.88;;;14.27;;
76900;SDS011;65859;43.020;25.096;2024-02-28T09:12:50;20.98;;;13.65;;
76900;SDS011;65859;43.020;25.096;2024-02-28T09:15:17;21.95;;;14.35;;
76900;SDS011;65859;43.020;25.096;2024-02-28T09:17:43;24.67;;;14.98;;
76900;SDS011;65859;43.020;25.096;2024-02-28T09:20:10;20.20;;;14.63;;
76900;SDS011;65859;43.020;25.096;2024-02-28T09:22:37;34.75;;;16.45;;
76900;SDS011;65859;43.020;25.096;2024-02-28T09:25:05;23.73;;;15.32;;
76900;SDS011;65859;43.020;25.096;2024-02-28T09:27:33;41.13;;;28.23;;
76900;SDS011;65859;43.020;25.096;2024-02-28T09:30:01;17.02;;;12.63;;
76900;SDS011;65859;43.020;25.096;2024-02-28T09:32:27;19.65;;;13.85;;
76900;SDS011;65859;43.020;25.096;2024-02-28T09:34:54;26.33;;;17.90;;
76900;SDS011;65859;43.020;25.096;2024-02-28T09:37:20;18.10;;;13.32;;
76900;SDS011;65859;43.020;25.096;2024-02-28T09:39:47;27.33;;;14.50;;
76900;SDS011;65859;43.020;25.096;2024-02-28T09:42:13;22.00;;;12.68;;
76900;SDS011;65859;43.020;25.096;2024-02-28T09:44:40;22.85;;;14.75;;
76900;SDS011;65859;43.020;25.096;2024-02-28T09:47:08;19.80;;;12.20;;
76900;SDS011;65859;43.020;25.096;2024-02-28T09:49:36;17.73;;;11.85;;
76900;SDS011;65859;43.020;25.096;2024-02-28T09:52:03;17.85;;;10.98;;
76900;SDS011;65859;43.020;25.096;2024-02-28T09:54:29;14.77;;;10.25;;
76900;SDS011;65859;43.020;25.096;2024-02-28T09:56:57;20.55;;;12.73;;
76900;SDS011;65859;43.020;25.096;2024-02-28T09:59:23;35.22;;;24.17;;
76900;SDS011;65859;43.020;25.096;2024-02-28T10:01:54;43.10;;;29.13;;
76900;SDS011;65859;43.020;25.096;2024-02-28T10:04:23;43.58;;;32.45;;
76900;SDS011;65859;43.020;25.096;2024-02-28T10:06:50;49.28;;;37.70;;
76900;SDS011;65859;43.020;25.096;2024-02-28T10:09:17;31.05;;;23.30;;
76900;SDS011;65859;43.020;25.096;2024-02-28T10:11:44;42.60;;;34.88;;
76900;SDS011;65859;43.020;25.096;2024-02-28T10:14:11;40.58;;;31.25;;
76900;SDS011;65859;43.020;25.096;2024-02-28T10:16:42;31.55;;;24.35;;
76900;SDS011;65859;43.020;25.096;2024-02-28T10:19:08;60.00;;;32.10;;
76900;SDS011;65859;43.020;25.096;2024-02-28T10:21:34;43.08;;;30.80;;
76900;SDS011;65859;43.020;25.096;2024-02-28T10:24:00;39.45;;;28.80;;
76900;SDS011;65859;43.020;25.096;2024-02-28T10:26:28;17.92;;;13.52;;
76900;SDS011;65859;43.020;25.096;2024-02-28T10:28:58;34.47;;;24.92;;
76900;SDS011;65859;43.020;25.096;2024-02-28T10:31:24;25.60;;;18.50;;
76900;SDS011;65859;43.020;25.096;2024-02-28T10:33:50;21.23;;;17.67;;
76900;SDS011;65859;43.020;25.096;2024-02-28T10:36:17;30.00;;;21.48;;
76900;SDS011;65859;43.020;25.096;2024-02-28T10:38:43;27.63;;;21.08;;
76900;SDS011;65859;43.020;25.096;2024-02-28T10:41:09;32.50;;;25.52;;
76900;SDS011;65859;43.020;25.096;2024-02-28T10:43:39;21.65;;;16.08;;
76900;SDS011;65859;43.020;25.096;2024-02-28T10:46:06;23.52;;;15.38;;
76900;SDS011;65859;43.020;25.096;2024-02-28T10:48:33;21.23;;;15.65;;
76900;SDS011;65859;43.020;25.096;2024-02-28T10:51:00;22.50;;;15.18;;
76900;SDS011;65859;43.020;25.096;2024-02-28T10:53:36;32.80;;;26.83;;
76900;SDS011;65859;43.020;25.096;2024-02-28T10:56:03;18.67;;;11.50;;
76900;SDS011;65859;43.020;25.096;2024-02-28T10:58:34;43.83;;;30.95;;
76900;SDS011;65859;43.020;25.096;2024-02-28T11:01:05;27.33;;;19.75;;
76900;SDS011;65859;43.020;25.096;2024-02-28T11:03:33;24.45;;;19.38;;
76900;SDS011;65859;43.020;25.096;2024-02-28T11:06:00;22.67;;;18.80;;
76900;SDS011;65859;43.020;25.096;2024-02-28T11:08:27;24.00;;;19.45;;
76900;SDS011;65859;43.020;25.096;2024-02-28T11:11:03;16.55;;;12.15;;
76900;SDS011;65859;43.020;25.096;2024-02-28T11:13:30;16.75;;;10.23;;
76900;SDS011;65859;43.020;25.096;2024-02-28T11:16:06;21.20;;;17.27;;
76900;SDS011;65859;43.020;25.096;2024-02-28T11:18:47;9.45;;;5.88;;
76900;SDS011;65859;43.020;25.096;2024-02-28T11:21:16;8.77;;;6.47;;
76900;SDS011;65859;43.020;25.096;2024-02-28T11:23:45;28.17;;;20.25;;
76900;SDS011;65859;43.020;25.096;2024-02-28T11:26:13;18.95;;;14.48;;
76900;SDS011;65859;43.020;25.096;2024-02-28T11:28:40;19.30;;;8.10;;
76900;SDS011;65859;43.020;25.096;2024-02-28T11:31:08;11.75;;;7.43;;
76900;SDS011;65859;43.020;25.096;2024-02-28T11:33:38;25.35;;;18.50;;
76900;SDS011;65859;43.020;25.096;2024-02-28T11:36:04;21.35;;;16.00;;
76900;SDS011;65859;43.020;25.096;2024-02-28T11:38:34;16.65;;;12.70;;
76900;SDS011;65859;43.020;25.096;2024-02-28T11:41:13;16.70;;;11.60;;
76900;SDS011;65859;43.020;25.096;2024-02-28T11:43:50;14.93;;;10.63;;
76900;SDS011;65859;43.020;25.096;2024-02-28T11:46:17;22.30;;;13.73;;
76900;SDS011;65859;43.020;25.096;2024-02-28T11:48:44;16.95;;;9.90;;
76900;SDS011;65859;43.020;25.096;2024-02-28T11:51:12;18.42;;;13.85;;
76900;SDS011;65859;43.020;25.096;2024-02-28T11:53:38;16.25;;;12.35;;
76900;SDS011;65859;43.020;25.096;2024-02-28T11:56:05;17.80;;;12.00;;
76900;SDS011;65859;43.020;25.096;2024-02-28T11:58:33;12.52;;;10.38;;
76900;SDS011;65859;43.020;25.096;2024-02-28T12:01:00;19.05;;;13.20;;
76900;SDS011;65859;43.020;25.096;2024-02-28T12:03:27;16.98;;;10.43;;
76900;SDS011;65859;43.020;25.096;2024-02-28T12:05:54;14.30;;;9.70;;
76900;SDS011;65859;43.020;25.096;2024-02-28T12:08:21;19.85;;;10.02;;
76900;SDS011;65859;43.020;25.096;2024-02-28T12:10:49;15.80;;;10.70;;
76900;SDS011;65859;43.020;25.096;2024-02-28T12:13:23;27.58;;;20.00;;
76900;SDS011;65859;43.020;25.096;2024-02-28T12:15:50;26.23;;;19.08;;
76900;SDS011;65859;43.020;25.096;2024-02-28T12:18:26;37.00;;;25.42;;
76900;SDS011;65859;43.020;25.096;2024-02-28T12:20:53;33.50;;;26.75;;
76900;SDS011;65859;43.020;25.096;2024-02-28T12:23:20;30.60;;;18.10;;
76900;SDS011;65859;43.020;25.096;2024-02-28T12:25:48;25.08;;;11.82;;
76900;SDS011;65859;43.020;25.096;2024-02-28T12:28:19;16.40;;;10.95;;
76900;SDS011;65859;43.020;25.096;2024-02-28T12:30:47;17.05;;;11.90;;
76900;SDS011;65859;43.020;25.096;2024-02-28T12:33:13;17.67;;;11.15;;
76900;SDS011;65859;43.020;25.096;2024-02-28T12:35:40;17.13;;;10.65;;
76900;SDS011;65859;43.020;25.096;2024-02-28T12:38:06;23.20;;;11.77;;
76900;SDS011;65859;43.020;25.096;2024-02-28T12:40:33;23.13;;;10.48;;
76900;SDS011;65859;43.020;25.096;2024-02-28T12:43:00;17.33;;;10.00;;
76900;SDS011;65859;43.020;25.096;2024-02-28T12:45:28;27.70;;;16.13;;
76900;SDS011;65859;43.020;25.096;2024-02-28T12:47:55;28.23;;;18.13;;
76900;SDS011;65859;43.020;25.096;2024-02-28T12:50:22;29.98;;;17.27;;
76900;SDS011;65859;43.020;25.096;2024-02-28T12:52:49;24.77;;;13.40;;
76900;SDS011;65859;43.020;25.096;2024-02-28T12:55:18;25.13;;;12.77;;
76900;SDS011;65859;43.020;25.096;2024-02-28T12:57:46;17.92;;;10.05;;
76900;SDS011;65859;43.020;25.096;2024-02-28T13:00:12;19.88;;;11.57;;
76900;SDS011;65859;43.020;25.096;2024-02-28T13:02:39;22.25;;;12.57;;
76900;SDS011;65859;43.020;25.096;2024-02-28T13:05:05;29.48;;;14.52;;
76900;SDS011;65859;43.020;25.096;2024-02-28T13:07:33;21.67;;;11.40;;
76900;SDS011;65859;43.020;25.096;2024-02-28T13:10:01;25.00;;;13.00;;
76900;SDS011;65859;43.020;25.096;2024-02-28T13:12:30;21.63;;;11.23;;
76900;SDS011;65859;43.020;25.096;2024-02-28T13:14:57;23.38;;;11.60;;
76900;SDS011;65859;43.020;25.096;2024-02-28T13:17:24;19.67;;;9.55;;
76900;SDS011;65859;43.020;25.096;2024-02-28T13:19:51;17.05;;;10.73;;
76900;SDS011;65859;43.020;25.096;2024-02-28T13:22:17;16.52;;;9.70;;
76900;SDS011;65859;43.020;25.096;2024-02-28T13:24:43;18.02;;;9.63;;
76900;SDS011;65859;43.020;25.096;2024-02-28T13:27:09;23.33;;;10.93;;
76900;SDS011;65859;43.020;25.096;2024-02-28T13:29:36;19.50;;;9.52;;
76900;SDS011;65859;43.020;25.096;2024-02-28T13:32:02;21.52;;;10.15;;
76900;SDS011;65859;43.020;25.096;2024-02-28T13:34:28;18.00;;;9.43;;
76900;SDS011;65859;43.020;25.096;2024-02-28T13:36:55;21.25;;;10.52;;
76900;SDS011;65859;43.020;25.096;2024-02-28T13:39:23;17.95;;;11.13;;
76900;SDS011;65859;43.020;25.096;2024-02-28T13:41:50;21.02;;;10.65;;
76900;SDS011;65859;43.020;25.096;2024-02-28T13:44:17;17.92;;;9.90;;
76900;SDS011;65859;43.020;25.096;2024-02-28T13:46:44;20.50;;;8.63;;
76900;SDS011;65859;43.020;25.096;2024-02-28T13:49:11;17.80;;;10.40;;
76900;SDS011;65859;43.020;25.096;2024-02-28T13:51:39;11.80;;;8.13;;
76900;SDS011;65859;43.020;25.096;2024-02-28T13:54:06;24.42;;;9.57;;
76900;SDS011;65859;43.020;25.096;2024-02-28T13:56:33;13.98;;;7.78;;
76900;SDS011;65859;43.020;25.096;2024-02-28T13:58:59;21.10;;;9.40;;
76900;SDS011;65859;43.020;25.096;2024-02-28T14:01:25;18.60;;;9.23;;
76900;SDS011;65859;43.020;25.096;2024-02-28T14:03:53;23.85;;;10.88;;
76900;SDS011;65859;43.020;25.096;2024-02-28T14:06:19;28.92;;;9.77;;
76900;SDS011;65859;43.020;25.096;2024-02-28T14:08:46;22.90;;;9.48;;
76900;SDS011;65859;43.020;25.096;2024-02-28T14:11:13;18.80;;;9.18;;